createdAt,value
2023-04-05T00:02:00.411Z,33.60
2023-04-05T00:04:28.676Z,33.78
2023-04-05T00:06:57.405Z,33.57
2023-04-05T00:09:24.079Z,33.54
2023-04-05T00:11:50.672Z,33.66
2023-04-05T00:14:17.412Z,33.59
2023-04-05T00:16:44.067Z,33.52
2023-04-05T00:19:13.741Z,33.47
2023-04-05T00:21:40.625Z,33.49
2023-04-05T00:24:09.338Z,33.52
2023-04-05T00:26:36.319Z,33.58
2023-04-05T00:29:03.044Z,33.54
2023-04-05T00:31:30.578Z,33.48
2023-04-05T00:33:57.710Z,33.39
2023-04-05T00:36:24.328Z,33.42
2023-04-05T00:38:50.858Z,33.47
2023-04-05T00:41:17.506Z,33.55
2023-04-05T00:43:44.247Z,33.43
2023-04-05T00:46:11.049Z,33.57
2023-04-05T00:48:38.436Z,33.49
2023-04-05T00:51:09.358Z,33.50
2023-04-05T00:53:37.443Z,34.00
2023-04-05T00:56:04.705Z,34.70
2023-04-05T00:58:31.978Z,35.20
2023-04-05T01:01:06.581Z,35.47
2023-04-05T01:03:35.750Z,35.49
2023-04-05T01:06:09.894Z,35.53
2023-04-05T01:08:56.984Z,35.66
2023-04-05T01:11:26.288Z,35.79
2023-04-05T01:13:59.499Z,35.83
2023-04-05T01:16:27.198Z,35.83
2023-04-05T01:18:56.586Z,35.61
2023-04-05T01:21:37.994Z,35.81
2023-04-05T01:24:32.295Z,36.30
2023-04-05T01:27:16.448Z,37.12
2023-04-05T01:30:08.793Z,37.28
2023-04-05T01:32:46.497Z,37.18
2023-04-05T01:35:24.661Z,36.91
2023-04-05T01:37:57.587Z,36.41
2023-04-05T01:40:24.768Z,35.99
2023-04-05T01:42:51.381Z,35.78
2023-04-05T01:45:17.978Z,35.45
2023-04-05T01:47:44.583Z,35.31
2023-04-05T01:50:11.466Z,35.23
2023-04-05T01:52:38.130Z,35.18
2023-04-05T01:55:04.997Z,35.11
2023-04-05T01:57:31.551Z,34.96
2023-04-05T01:59:58.231Z,34.73
2023-04-05T02:02:24.912Z,34.76
2023-04-05T02:04:51.532Z,34.58
2023-04-05T02:07:18.070Z,34.51
2023-04-05T02:09:44.647Z,34.33
2023-04-05T02:12:12.645Z,34.19
2023-04-05T02:14:39.271Z,34.14
2023-04-05T02:17:05.906Z,33.97
2023-04-05T02:19:37.161Z,34.05
2023-04-05T02:22:03.912Z,33.98
2023-04-05T02:24:30.424Z,33.85
2023-04-05T02:26:57.497Z,33.79
2023-04-05T02:29:24.554Z,33.85
2023-04-05T02:31:51.151Z,33.71
2023-04-05T02:34:17.755Z,33.52
2023-04-05T02:36:44.566Z,33.55
2023-04-05T02:39:11.337Z,33.58
2023-04-05T02:41:38.199Z,33.56
2023-04-05T02:44:04.870Z,33.59
2023-04-05T02:46:31.792Z,33.63
2023-04-05T02:48:59.266Z,33.53
2023-04-05T02:51:28.623Z,33.67
2023-04-05T02:53:55.563Z,33.59
2023-04-05T02:56:22.197Z,33.59
2023-04-05T02:58:49.360Z,33.57
2023-04-05T03:01:22.605Z,33.60
2023-04-05T03:03:49.671Z,33.64
2023-04-05T03:06:16.236Z,33.68
2023-04-05T03:08:49.024Z,33.59
2023-04-05T03:11:20.866Z,33.65
2023-04-05T03:13:51.721Z,33.44
2023-04-05T03:16:47.319Z,33.55
2023-04-05T03:19:26.240Z,33.51
2023-04-05T03:21:59.306Z,33.46
2023-04-05T03:24:31.176Z,33.45
2023-04-05T03:27:06.082Z,33.47
2023-04-05T03:29:39.945Z,33.38
2023-04-05T03:32:14.007Z,33.41
2023-04-05T03:34:47.177Z,33.40
2023-04-05T03:37:15.876Z,33.35
2023-04-05T03:39:48.538Z,33.23
2023-04-05T03:42:16.517Z,33.29
2023-04-05T03:44:44.272Z,33.26
2023-04-05T03:47:13.110Z,33.26
2023-04-05T03:49:41.087Z,33.41
2023-04-05T03:52:08.595Z,33.43
2023-04-05T03:54:35.474Z,33.43
2023-04-05T03:57:03.003Z,33.46
2023-04-05T03:59:31.189Z,33.40
2023-04-05T04:02:00.011Z,33.26
2023-04-05T04:04:28.113Z,33.41
2023-04-05T04:06:56.397Z,33.37
2023-04-05T04:09:25.131Z,33.30
2023-04-05T04:11:51.836Z,33.09
2023-04-05T04:14:21.216Z,33.25
2023-04-05T04:16:56.481Z,33.24
2023-04-05T04:19:51.978Z,33.19
2023-04-05T04:22:41.254Z,33.16
2023-04-05T04:25:18.793Z,33.04
2023-04-05T04:28:01.576Z,32.94
2023-04-05T04:31:04.866Z,32.95
2023-04-05T04:33:50.319Z,32.93
2023-04-05T04:36:39.400Z,33.02
2023-04-05T04:39:27.387Z,33.25
2023-04-05T04:42:23.782Z,33.64
2023-04-05T04:45:02.648Z,34.05
2023-04-05T04:47:42.195Z,34.40
2023-04-05T04:50:19.973Z,34.33
2023-04-05T04:52:47.604Z,34.19
2023-04-05T04:55:14.326Z,33.95
2023-04-05T04:57:42.173Z,33.94
2023-04-05T05:00:13.413Z,33.72
2023-04-05T05:02:40.675Z,33.65
2023-04-05T05:05:07.952Z,33.69
2023-04-05T05:07:35.746Z,33.80
2023-04-05T05:10:03.866Z,33.62
2023-04-05T05:12:31.570Z,33.60
2023-04-05T05:14:58.113Z,33.62
2023-04-05T05:17:25.984Z,33.43
2023-04-05T05:19:54.669Z,33.36
2023-04-05T05:22:22.441Z,33.39
2023-04-05T05:24:49.025Z,33.23
2023-04-05T05:27:15.769Z,33.21
2023-04-05T05:29:42.267Z,33.08
2023-04-05T05:32:09.340Z,32.96
2023-04-05T05:34:37.297Z,32.94
2023-04-05T05:37:04.257Z,32.93
2023-04-05T05:39:30.873Z,32.69
2023-04-05T05:41:57.592Z,32.83
2023-04-05T05:44:24.094Z,32.74
2023-04-05T05:46:50.642Z,32.84
2023-04-05T05:49:17.450Z,32.63
2023-04-05T05:51:44.010Z,32.66
2023-04-05T05:54:10.583Z,32.66
2023-04-05T05:56:37.434Z,32.62
2023-04-05T05:59:07.465Z,32.57
2023-04-05T06:01:38.264Z,32.48
2023-04-05T06:04:11.102Z,32.38
2023-04-05T06:06:38.038Z,32.37
2023-04-05T06:09:04.701Z,32.32
2023-04-05T06:11:31.273Z,32.33
2023-04-05T06:13:57.846Z,32.24
2023-04-05T06:16:27.402Z,32.19
2023-04-05T06:18:56.099Z,32.10
2023-04-05T06:21:22.973Z,32.14
2023-04-05T06:23:49.714Z,32.20
2023-04-05T06:26:22.985Z,32.10
2023-04-05T06:28:50.156Z,32.05
2023-04-05T06:33:44.432Z,32.07
2023-04-05T06:36:11.669Z,31.98
2023-04-05T06:38:38.438Z,32.01
2023-04-05T06:41:05.393Z,31.78
2023-04-05T06:43:32.262Z,31.90
2023-04-05T06:46:01.060Z,32.06
2023-04-05T06:48:29.338Z,32.16
2023-04-05T06:51:00.708Z,32.12
2023-04-05T06:53:28.496Z,31.89
2023-04-05T06:55:56.052Z,31.67
2023-04-05T06:58:29.375Z,31.78
2023-04-05T07:00:56.243Z,31.65
2023-04-05T07:03:22.865Z,31.62
2023-04-05T07:05:59.893Z,31.73
2023-04-05T07:08:28.218Z,31.70
2023-04-05T07:10:55.324Z,31.70
2023-04-05T07:13:24.486Z,31.52
2023-04-05T07:15:51.899Z,31.68
2023-04-05T07:18:19.514Z,31.44
2023-04-05T07:20:49.441Z,31.52
2023-04-05T07:23:16.610Z,31.46
2023-04-05T07:25:43.884Z,31.36
2023-04-05T07:28:10.623Z,31.37
2023-04-05T07:30:37.647Z,31.27
2023-04-05T07:33:04.825Z,31.26
2023-04-05T07:35:31.611Z,31.26
2023-04-05T07:37:58.280Z,31.15
2023-04-05T07:40:27.797Z,31.15
2023-04-05T07:42:54.708Z,31.26
2023-04-05T07:45:21.397Z,31.31
2023-04-05T07:47:48.015Z,31.33
2023-04-05T07:50:15.199Z,31.33
2023-04-05T07:52:42.781Z,31.42
2023-04-05T07:55:10.083Z,31.37
2023-04-05T07:57:37.695Z,31.44
2023-04-05T08:00:10.231Z,31.26
2023-04-05T08:02:40.014Z,31.34
2023-04-05T08:05:06.907Z,31.29
2023-04-05T08:07:33.500Z,31.24
2023-04-05T08:10:00.506Z,31.31
2023-04-05T08:12:27.448Z,31.44
2023-04-05T08:14:54.322Z,31.45
2023-04-05T08:17:21.072Z,31.66
2023-04-05T08:19:49.343Z,31.72
2023-04-05T08:22:17.746Z,31.59
2023-04-05T08:24:47.410Z,31.75
2023-04-05T08:27:14.011Z,31.67
2023-04-05T08:29:40.560Z,31.55
2023-04-05T08:32:07.206Z,31.35
2023-04-05T08:34:33.800Z,31.51
2023-04-05T08:37:00.634Z,31.19
2023-04-05T08:39:27.404Z,31.29
2023-04-05T08:42:18.237Z,31.03
2023-04-05T08:44:47.576Z,30.83
2023-04-05T08:47:18.994Z,30.75
2023-04-05T08:49:46.172Z,30.66
2023-04-05T08:52:12.930Z,30.55
2023-04-05T08:54:40.524Z,30.36
2023-04-05T08:57:10.399Z,30.39
2023-04-05T08:59:40.783Z,30.50
2023-04-05T09:02:14.863Z,30.65
2023-04-05T09:04:44.932Z,30.59
2023-04-05T09:07:14.229Z,30.64
2023-04-05T09:09:44.193Z,30.46
2023-04-05T09:12:11.283Z,30.49
2023-04-05T09:14:38.665Z,30.18
2023-04-05T09:17:09.623Z,30.18
2023-04-05T09:19:36.387Z,30.09
2023-04-05T09:22:07.773Z,30.02
2023-04-05T09:24:44.764Z,30.08
2023-04-05T09:27:17.256Z,30.00
2023-04-05T09:29:47.744Z,30.04
2023-04-05T09:32:15.374Z,30.09
2023-04-05T09:34:43.522Z,30.28
2023-04-05T09:37:22.121Z,30.51
2023-04-05T09:39:51.717Z,30.57
2023-04-05T09:42:24.708Z,30.55
2023-04-05T09:44:51.288Z,30.62
2023-04-05T09:47:20.324Z,30.50
2023-04-05T09:49:51.840Z,30.42
2023-04-05T09:52:19.366Z,30.44
2023-04-05T09:54:45.925Z,30.44
2023-04-05T09:57:12.730Z,30.50
2023-04-05T09:59:40.128Z,30.61
2023-04-05T10:02:07.136Z,30.48
2023-04-05T10:04:43.913Z,30.49
2023-04-05T10:07:15.749Z,30.41
2023-04-05T10:09:44.343Z,30.56
2023-04-05T10:12:16.418Z,30.34
2023-04-05T10:14:43.030Z,30.43
2023-04-05T10:17:14.887Z,30.51
2023-04-05T10:20:08.845Z,30.47
2023-04-05T10:22:41.438Z,30.49
2023-04-05T10:25:35.958Z,30.43
2023-04-05T10:28:10.680Z,30.40
2023-04-05T10:30:47.484Z,30.50
2023-04-05T10:33:26.179Z,30.43
2023-04-05T10:36:17.362Z,30.52
2023-04-05T10:39:21.736Z,30.40
2023-04-05T10:41:52.687Z,30.40
2023-04-05T10:44:26.403Z,30.13
2023-04-05T10:46:55.198Z,30.19
2023-04-05T10:49:39.209Z,29.99
2023-04-05T10:52:07.051Z,30.01
2023-04-05T10:54:36.632Z,29.92
2023-04-05T10:57:09.024Z,29.86
2023-04-05T10:59:42.156Z,29.87
2023-04-05T11:02:09.778Z,30.21
2023-04-05T11:04:38.764Z,30.01
2023-04-05T11:07:17.895Z,29.84
2023-04-05T11:10:01.659Z,29.68
2023-04-05T11:12:46.656Z,29.75
2023-04-05T11:15:29.247Z,30.00
2023-04-05T11:18:06.568Z,29.89
2023-04-05T11:20:57.811Z,29.92
2023-04-05T11:23:25.725Z,29.91
2023-04-05T11:25:55.993Z,30.07
2023-04-05T11:28:31.792Z,29.93
2023-04-05T11:31:12.869Z,29.93
2023-04-05T11:33:42.222Z,29.88
2023-04-05T11:36:09.927Z,29.71
2023-04-05T11:38:37.177Z,29.83
2023-04-05T11:43:27.901Z,29.94
2023-04-05T11:45:54.721Z,29.95
2023-04-05T11:48:22.352Z,29.89
2023-04-05T11:50:51.014Z,29.89
2023-04-05T11:53:18.215Z,29.95
2023-04-05T11:55:51.104Z,29.89
2023-04-05T11:58:23.188Z,29.89
2023-04-05T12:01:07.719Z,29.93
2023-04-05T12:03:37.916Z,29.84
2023-04-05T12:06:06.132Z,29.83
2023-04-05T12:08:39.386Z,29.87
2023-04-05T12:11:08.952Z,29.97
2023-04-05T12:13:36.459Z,29.99
2023-04-05T12:16:06.006Z,29.83
2023-04-05T12:18:37.035Z,30.07
2023-04-05T12:21:07.519Z,29.93
2023-04-05T12:23:35.886Z,30.08
2023-04-05T12:26:04.422Z,30.08
2023-04-05T12:28:56.433Z,29.84
2023-04-05T12:31:45.951Z,29.93
2023-04-05T12:34:14.612Z,30.06
2023-04-05T12:36:46.061Z,31.26
2023-04-05T12:39:12.650Z,31.99
2023-04-05T12:41:39.925Z,31.96
2023-04-05T12:44:30.562Z,31.66
2023-04-05T12:47:07.612Z,31.35
2023-04-05T12:49:38.035Z,31.03
2023-04-05T12:52:07.719Z,31.16
2023-04-05T12:54:34.541Z,31.11
2023-04-05T12:57:04.318Z,30.99
2023-04-05T12:59:30.995Z,31.01
2023-04-05T13:01:57.564Z,31.03
2023-04-05T13:04:26.211Z,31.05
2023-04-05T13:06:52.741Z,31.99
2023-04-05T13:09:19.292Z,32.43
2023-04-05T13:11:45.818Z,32.82
2023-04-05T13:14:12.540Z,32.43
2023-04-05T13:16:39.067Z,32.35
2023-04-05T13:19:05.671Z,32.38
2023-04-05T13:24:08.612Z,32.17
2023-04-05T13:28:50.907Z,31.95
2023-04-05T13:31:17.661Z,31.91
2023-04-05T13:33:44.292Z,31.87
2023-04-05T13:36:12.523Z,31.67
2023-04-05T13:38:39.368Z,31.71
2023-04-05T13:41:06.137Z,31.74
2023-04-05T13:43:32.662Z,31.67
2023-04-05T13:45:59.447Z,31.64
2023-04-05T13:48:25.992Z,31.35
2023-04-05T13:50:52.574Z,31.60
2023-04-05T13:53:19.112Z,31.43
2023-04-05T13:55:45.671Z,31.72
2023-04-05T13:58:14.122Z,31.72
2023-04-05T14:00:41.092Z,31.54
2023-04-05T14:03:07.968Z,32.46
2023-04-05T14:05:34.824Z,35.34
2023-04-05T14:08:01.375Z,38.12
2023-04-05T14:10:27.938Z,39.54
2023-04-05T14:12:54.423Z,41.07
2023-04-05T14:15:21.540Z,42.16
2023-04-05T14:17:48.044Z,42.87
2023-04-05T14:20:14.805Z,43.05
2023-04-05T14:22:41.476Z,42.54
2023-04-05T14:25:08.433Z,41.13
2023-04-05T14:27:37.580Z,39.91
2023-04-05T14:30:04.800Z,38.97
2023-04-05T14:32:33.746Z,37.97
2023-04-05T14:35:00.728Z,36.98
2023-04-05T14:37:27.510Z,36.56
2023-04-05T14:39:54.056Z,36.14
2023-04-05T14:42:21.603Z,35.60
2023-04-05T14:44:48.245Z,35.15
2023-04-05T14:47:14.790Z,35.12
2023-04-05T14:49:41.388Z,34.54
2023-04-05T14:52:08.083Z,34.11
2023-04-05T14:54:34.733Z,33.97
2023-04-05T14:57:01.533Z,33.76
2023-04-05T14:59:28.317Z,33.47
2023-04-05T15:01:54.910Z,33.22
2023-04-05T15:04:21.550Z,32.89
2023-04-05T15:06:48.375Z,32.70
2023-04-05T15:09:15.283Z,32.62
2023-04-05T15:14:11.509Z,32.79
2023-04-05T15:16:47.806Z,32.72
2023-04-05T15:19:14.434Z,32.68
2023-04-05T15:21:41.211Z,32.77
2023-04-05T15:26:29.076Z,32.34
2023-04-05T15:28:55.662Z,32.38
2023-04-05T15:31:22.200Z,32.53
2023-04-05T15:33:48.773Z,32.56
2023-04-05T15:36:15.316Z,32.49
2023-04-05T15:38:42.019Z,32.26
2023-04-05T15:41:08.597Z,32.51
2023-04-05T15:43:35.213Z,32.34
2023-04-05T15:46:01.966Z,31.90
2023-04-05T15:48:28.639Z,32.00
2023-04-05T15:50:55.172Z,32.13
2023-04-05T15:53:21.799Z,32.08
2023-04-05T15:55:48.307Z,32.11
2023-04-05T15:58:15.249Z,32.08
2023-04-05T16:00:41.763Z,32.43
2023-04-05T16:03:08.446Z,32.30
2023-04-05T16:05:34.973Z,32.38
2023-04-05T16:08:01.728Z,32.07
2023-04-05T16:10:28.309Z,32.28
2023-04-05T16:12:54.924Z,32.27
2023-04-05T16:15:21.924Z,32.43
2023-04-05T16:17:48.620Z,32.54
2023-04-05T16:20:17.414Z,32.00
2023-04-05T16:22:45.117Z,32.03
2023-04-05T16:25:12.206Z,32.39
2023-04-05T16:27:39.072Z,32.24
2023-04-05T16:30:06.314Z,32.07
2023-04-05T16:32:33.048Z,32.15
2023-04-05T16:34:59.786Z,32.13
2023-04-05T16:37:26.509Z,32.05
2023-04-05T16:39:53.115Z,32.12
2023-04-05T16:42:19.676Z,32.23
2023-04-05T16:44:46.248Z,32.00
2023-04-05T16:47:12.992Z,32.04
2023-04-05T16:49:39.786Z,31.86
2023-04-05T16:52:06.536Z,31.94
2023-04-05T16:54:33.271Z,31.79
2023-04-05T16:57:00.793Z,32.14
2023-04-05T16:59:27.770Z,31.92
2023-04-05T17:01:54.395Z,31.95
2023-04-05T17:04:21.001Z,31.91
2023-04-05T17:06:47.691Z,31.92
2023-04-05T17:09:15.080Z,31.56
2023-04-05T17:11:41.685Z,31.51
2023-04-05T17:14:08.213Z,31.91
2023-04-05T17:16:34.915Z,32.00
2023-04-05T17:19:01.674Z,31.96
2023-04-05T17:21:28.466Z,32.11
2023-04-05T17:23:55.101Z,32.02
2023-04-05T17:26:23.822Z,32.09
2023-04-05T17:28:50.407Z,32.44
2023-04-05T17:31:17.067Z,32.60
2023-04-05T17:33:44.373Z,32.70
2023-04-05T17:36:12.504Z,32.93
2023-04-05T17:38:39.126Z,33.04
2023-04-05T17:41:08.796Z,33.54
2023-04-05T17:43:35.636Z,33.61
2023-04-05T17:46:02.917Z,32.48
2023-04-05T17:48:29.714Z,31.57
2023-04-05T17:50:56.588Z,32.30
2023-04-05T17:53:23.224Z,32.33
2023-04-05T17:55:49.813Z,32.39
2023-04-05T17:58:16.388Z,32.55
2023-04-05T18:00:43.598Z,33.00
2023-04-05T18:03:12.971Z,33.28
2023-04-05T18:05:40.089Z,35.03
2023-04-05T18:08:06.643Z,36.88
2023-04-05T18:10:33.316Z,38.70
2023-04-05T18:12:59.937Z,40.49
2023-04-05T18:15:27.105Z,41.42
2023-04-05T18:17:53.682Z,42.35
2023-04-05T18:20:20.269Z,44.18
2023-04-05T18:22:46.849Z,43.80
2023-04-05T18:25:13.559Z,43.03
2023-04-05T18:27:42.336Z,41.80
2023-04-05T18:30:10.519Z,40.94
2023-04-05T18:32:38.908Z,39.99
2023-04-05T18:35:06.267Z,39.21
2023-04-05T18:37:32.810Z,38.89
2023-04-05T18:39:59.399Z,38.46
2023-04-05T18:42:25.976Z,38.15
2023-04-05T18:44:52.693Z,37.61
2023-04-05T18:47:19.213Z,36.85
2023-04-05T18:49:46.265Z,36.25
2023-04-05T18:52:12.856Z,35.90
2023-04-05T18:54:39.975Z,35.92
2023-04-05T18:57:07.086Z,35.46
2023-04-05T18:59:33.737Z,35.07
2023-04-05T19:02:00.450Z,34.85
2023-04-05T19:04:27.161Z,34.60
2023-04-05T19:06:53.802Z,34.46
2023-04-05T19:09:21.898Z,34.43
2023-04-05T19:11:48.437Z,34.19
2023-04-05T19:14:15.038Z,34.44
2023-04-05T19:16:42.596Z,34.24
2023-04-05T19:19:09.389Z,33.92
2023-04-05T19:21:36.165Z,33.63
2023-04-05T19:24:02.876Z,33.84
2023-04-05T19:26:29.423Z,33.57
2023-04-05T19:28:57.301Z,33.29
2023-04-05T19:31:23.894Z,33.45
2023-04-05T19:33:50.920Z,33.24
2023-04-05T19:36:18.645Z,33.17
2023-04-05T19:38:48.285Z,33.15
2023-04-05T19:41:14.944Z,33.02
2023-04-05T19:43:42.779Z,33.13
2023-04-05T19:46:12.545Z,32.98
2023-04-05T19:48:41.999Z,32.80
2023-04-05T19:51:14.312Z,32.91
2023-04-05T19:53:41.667Z,32.64
2023-04-05T19:56:21.666Z,32.60
2023-04-05T19:59:03.016Z,32.54
2023-04-05T20:01:36.728Z,32.54
2023-04-05T20:04:15.434Z,32.57
2023-04-05T20:06:43.538Z,32.35
2023-04-05T20:09:14.891Z,32.28
2023-04-05T20:11:43.978Z,32.23
2023-04-05T20:14:10.985Z,32.36
2023-04-05T20:16:38.160Z,32.14
2023-04-05T20:19:08.277Z,32.33
2023-04-05T20:21:37.220Z,31.95
2023-04-05T20:24:08.709Z,31.93
2023-04-05T20:28:54.104Z,31.91
2023-04-05T20:31:25.900Z,31.65
2023-04-05T20:34:09.394Z,31.61
2023-04-05T20:36:37.930Z,31.81
2023-04-05T20:39:08.987Z,31.62
2023-04-05T20:41:36.194Z,31.53
2023-04-05T20:44:04.010Z,31.49
2023-04-05T20:46:30.772Z,31.61
2023-04-05T20:48:58.002Z,31.33
2023-04-05T20:51:27.792Z,31.12
2023-04-05T20:53:54.821Z,31.14
2023-04-05T20:56:21.467Z,31.35
2023-04-05T20:58:48.134Z,31.20
2023-04-05T21:01:14.830Z,31.25
2023-04-05T21:03:42.288Z,31.02
2023-04-05T21:06:10.268Z,31.14
2023-04-05T21:08:39.620Z,31.08
2023-04-05T21:11:07.584Z,30.81
2023-04-05T21:13:35.470Z,31.03
2023-04-05T21:16:02.150Z,30.70
2023-04-05T21:18:28.675Z,30.58
2023-04-05T21:20:55.492Z,30.95
2023-04-05T21:23:28.982Z,30.73
2023-04-05T21:25:56.796Z,30.81
2023-04-05T21:28:24.608Z,30.69
2023-04-05T21:30:51.606Z,30.88
2023-04-05T21:33:18.863Z,30.60
2023-04-05T21:35:48.469Z,30.76
2023-04-05T21:38:15.942Z,30.64
2023-04-05T21:40:44.564Z,30.54
2023-04-05T21:43:12.491Z,30.65
2023-04-05T21:45:39.052Z,30.90
2023-04-05T21:48:06.069Z,30.39
2023-04-05T21:50:32.720Z,30.32
2023-04-05T21:52:59.203Z,30.39
2023-04-05T21:55:25.851Z,30.31
2023-04-05T21:57:52.452Z,30.48
2023-04-05T22:00:20.012Z,30.38
2023-04-05T22:02:47.080Z,30.33
2023-04-05T22:05:25.620Z,30.54
2023-04-05T22:07:56.661Z,30.49
2023-04-05T22:10:23.315Z,30.27
2023-04-05T22:12:52.564Z,30.31
2023-04-05T22:15:19.171Z,30.44
2023-04-05T22:17:45.876Z,30.44
2023-04-05T22:20:12.681Z,30.45
2023-04-05T22:22:41.966Z,30.23
2023-04-05T22:25:09.742Z,30.30
2023-04-05T22:27:36.354Z,30.23
2023-04-05T22:30:03.716Z,30.20
2023-04-05T22:32:30.456Z,30.26
2023-04-05T22:34:59.768Z,30.18
2023-04-05T22:37:26.477Z,30.41
2023-04-05T22:39:52.946Z,30.25
2023-04-05T22:42:19.557Z,30.37
2023-04-05T22:44:46.143Z,30.14
2023-04-05T22:47:12.925Z,30.33
2023-04-05T22:49:39.427Z,30.27
2023-04-05T22:52:06.213Z,30.23
2023-04-05T22:54:32.705Z,30.09
2023-04-05T22:59:14.159Z,30.26
2023-04-05T23:01:41.101Z,30.10
2023-04-05T23:04:07.867Z,30.12
2023-04-05T23:08:55.933Z,30.13
2023-04-05T23:11:22.463Z,30.07
2023-04-05T23:13:49.761Z,30.08
2023-04-05T23:16:16.924Z,30.05
2023-04-05T23:18:43.558Z,30.16
2023-04-05T23:21:11.150Z,30.01
2023-04-05T23:23:37.659Z,30.16
2023-04-05T23:26:04.410Z,30.14
2023-04-05T23:28:30.947Z,29.92
2023-04-05T23:30:57.597Z,29.98
2023-04-05T23:33:24.115Z,30.06
2023-04-05T23:35:51.014Z,29.97
2023-04-05T23:38:17.555Z,30.07
2023-04-05T23:40:44.092Z,30.00
2023-04-05T23:43:11.046Z,29.81
2023-04-05T23:45:37.726Z,29.90
2023-04-05T23:48:04.682Z,29.76
2023-04-05T23:50:31.529Z,29.75
2023-04-05T23:52:58.215Z,29.85
2023-04-05T23:55:24.878Z,29.84
2023-04-05T23:57:52.136Z,29.83
